Lamezia Terme Airport LICA

Flugplatz Daten

Name: Lamezia Terme Airport

Ident: LICA

Lat: 38,90539932

Long: 16,24230003

Platzhöhe: 39 ft

IataCode: SUF

City: Lamezia Terme

Metar

2022/08/13 18:20
LICA 131820Z AUTO 24005KT 9999 FEW030/// 26/20 Q1010

Taf

2022/08/13 18:00
TAF LICA 131700Z 1318/1418 27006KT 9999 SCT030
TEMPO 1322/1405 TSRA
BECMG 1408/1410 27016KT
Gewünschte Webcam nicht vorhanden? Dann fügen Sie eine hinzu. Sie wird dann so schnell wie möglich freigeschaltet
Url: Title: